Terminal Aerodrome Forecast
Issued by NWS

Current Version | Previous Version | Text Only | Print | Product List | Glossary On
Versions: 1 2 3 4 5 6 7 8 9 10 11 12 13 14 15 16 17 18
000
FTUS43 KMQT 312300
TAFSAW
TAF
KSAW 312324Z 0100/0124 03007KT P6SM FEW060
     FM010100 VRB03KT P6SM SKC
     FM011500 04008KT P6SM SCT060
      AMD LTD TO CLD VIS AND WIND 0102/0110=

USA.gov is the U.S. government's official web portal to all federal, state and local government web resources and services.